Time;durP1;ratioP1;P1;durP2;ratioP2;P2;SDS_P1;SDS_P2;PMS_P1;PMS_P2;Temp;Humidity;BMP_temperature;BMP_pressure;BME280_temperature;BME280_humidity;BME280_pressure;Samples;Min_cycle;Max_cycle;Signal;HPM_P1;HPM_P2
2023/04/02 00:01:05;;;;;;;2.47;1.33;;;12.90;99.90;;;;;;941613;151;27314;-81
2023/04/02 00:03:44;;;;;;;1.30;1.10;;;12.90;99.90;;;;;;931810;151;27774;-81
2023/04/02 00:06:38;;;;;;;0.83;0.80;;;12.90;99.90;;;;;;935745;150;27338;-81
2023/04/02 00:08:55;;;;;;;3.30;1.13;;;12.90;99.90;;;;;;923781;153;27365;-80
2023/04/02 00:11:18;;;;;;;1.30;1.20;;;12.90;99.90;;;;;;929618;152;27358;-81
2023/04/02 00:13:47;;;;;;;1.97;1.10;;;12.90;99.90;;;;;;938336;151;27450;-81
2023/04/02 00:16:11;;;;;;;1.87;1.10;;;12.90;99.90;;;;;;941028;151;27591;-81
2023/04/02 00:18:44;;;;;;;0.70;0.70;;;12.90;99.90;;;;;;928476;150;27298;-81
2023/04/02 00:21:16;;;;;;;0.60;0.60;;;12.90;99.90;;;;;;928593;150;27285;-80
2023/04/02 00:23:43;;;;;;;1.93;1.20;;;12.90;99.90;;;;;;943173;151;27453;-81
2023/04/02 00:26:24;;;;;;;1.40;0.90;;;12.90;99.90;;;;;;936389;151;27330;-80
2023/04/02 00:28:50;;;;;;;1.00;1.00;;;12.90;99.90;;;;;;933996;151;27309;-81
2023/04/02 00:31:17;;;;;;;1.27;1.00;;;12.90;99.90;;;;;;931195;151;27719;-81
2023/04/02 00:33:43;;;;;;;2.83;1.10;;;12.90;99.90;;;;;;942182;151;27449;-81
2023/04/02 00:36:10;;;;;;;1.93;1.33;;;12.90;99.90;;;;;;931618;151;27442;-81
2023/04/02 00:38:37;;;;;;;3.10;1.40;;;12.80;99.90;;;;;;942774;151;27394;-81
2023/04/02 00:41:03;;;;;;;2.60;1.57;;;12.90;99.90;;;;;;933002;151;27858;-81
2023/04/02 00:43:32;;;;;;;2.33;1.70;;;12.80;99.90;;;;;;939378;151;27364;-81
2023/04/02 00:46:02;;;;;;;2.50;1.60;;;12.80;99.90;;;;;;942251;151;27341;-81
2023/04/02 00:48:31;;;;;;;2.37;1.63;;;12.80;99.90;;;;;;945243;149;27328;-81
2023/04/02 00:51:12;;;;;;;2.17;1.60;;;12.80;99.90;;;;;;924425;154;27370;-82
2023/04/02 00:53:39;;;;;;;2.07;1.63;;;12.80;99.90;;;;;;943478;149;27352;-82
2023/04/02 00:56:05;;;;;;;2.20;1.40;;;12.80;99.90;;;;;;919265;151;27332;-81
2023/04/02 00:58:32;;;;;;;1.90;1.60;;;12.80;99.90;;;;;;940309;152;27347;-81
2023/04/02 01:00:59;;;;;;;2.23;1.80;;;12.80;99.90;;;;;;941478;151;27399;-81
2023/04/02 01:03:28;;;;;;;2.57;1.23;;;12.80;99.90;;;;;;942898;151;27331;-82
2023/04/02 01:06:09;;;;;;;1.43;1.33;;;12.80;99.90;;;;;;941050;152;27383;-82
2023/04/02 01:08:54;;;;;;;1.47;1.13;;;12.80;99.90;;;;;;930513;151;27352;-82
2023/04/02 01:11:24;;;;;;;1.20;1.20;;;12.80;99.90;;;;;;928215;150;27315;-82
2023/04/02 01:13:56;;;;;;;2.10;1.40;;;12.80;99.90;;;;;;929396;151;27386;-81
2023/04/02 01:16:35;;;;;;;1.80;1.40;;;12.80;99.90;;;;;;925590;152;27473;-81
2023/04/02 01:19:17;;;;;;;1.97;1.33;;;12.70;99.90;;;;;;926810;151;27431;-82
2023/04/02 01:22:05;;;;;;;2.93;1.60;;;12.70;99.90;;;;;;942605;151;27268;-82
2023/04/02 01:24:31;;;;;;;1.93;1.33;;;12.70;99.90;;;;;;940107;151;27305;-81
2023/04/02 01:27:07;;;;;;;1.67;1.50;;;12.70;99.90;;;;;;941312;152;27353;-81
2023/04/02 01:29:45;;;;;;;1.63;1.07;;;12.70;99.90;;;;;;938792;149;27266;-81
2023/04/02 01:32:12;;;;;;;1.50;1.40;;;12.70;99.90;;;;;;936484;152;27366;-81
2023/04/02 01:34:38;;;;;;;1.23;1.20;;;12.60;99.90;;;;;;940473;149;27337;-81
2023/04/02 01:37:16;;;;;;;1.37;1.27;;;12.70;99.90;;;;;;926422;151;27353;-81
2023/04/02 01:40:04;;;;;;;1.80;1.13;;;12.70;99.90;;;;;;943249;151;27390;-81
2023/04/02 01:42:34;;;;;;;1.23;1.20;;;12.70;99.90;;;;;;928231;151;27386;-81
2023/04/02 01:45:01;;;;;;;1.37;1.27;;;12.70;99.90;;;;;;940331;149;27427;-82
2023/04/02 01:47:28;;;;;;;1.87;1.40;;;12.70;99.90;;;;;;943400;149;27368;-81
2023/04/02 01:49:56;;;;;;;1.50;1.30;;;12.60;99.90;;;;;;943376;149;27990;-81
2023/04/02 01:52:26;;;;;;;2.53;1.27;;;12.60;99.90;;;;;;940961;149;27355;-81
2023/04/02 01:54:52;;;;;;;1.60;1.50;;;12.70;99.90;;;;;;943211;148;27366;-81
2023/04/02 01:57:19;;;;;;;2.60;1.30;;;12.60;99.90;;;;;;936680;150;27366;-81
2023/04/02 01:59:46;;;;;;;1.47;1.37;;;12.60;99.90;;;;;;937500;150;27426;-81
2023/04/02 02:02:12;;;;;;;1.43;1.33;;;12.60;99.90;;;;;;950980;148;27383;-81
2023/04/02 02:04:39;;;;;;;1.50;1.40;;;12.60;99.90;;;;;;933110;150;27440;-81
2023/04/02 02:07:09;;;;;;;1.53;1.43;;;12.60;99.90;;;;;;942850;148;27365;-81
2023/04/02 02:09:35;;;;;;;1.60;1.37;;;12.60;99.90;;;;;;922142;150;27497;-81
2023/04/02 02:12:02;;;;;;;1.40;1.30;;;12.60;99.90;;;;;;938541;150;27399;-81
2023/04/02 02:14:28;;;;;;;1.87;1.40;;;12.60;99.90;;;;;;938565;150;27457;-81
2023/04/02 02:17:00;;;;;;;1.83;1.50;;;12.60;99.90;;;;;;942123;148;27393;-80
2023/04/02 02:19:39;;;;;;;1.70;1.60;;;12.60;99.90;;;;;;923729;150;27377;-79
2023/04/02 02:22:34;;;;;;;2.25;1.37;;;12.60;99.90;;;;;;935117;149;27449;-80
2023/04/02 02:25:00;;;;;;;1.40;1.30;;;12.60;99.90;;;;;;943472;148;27325;-80
2023/04/02 02:27:27;;;;;;;2.03;1.60;;;12.60;99.90;;;;;;939251;150;27322;-79
2023/04/02 02:30:17;;;;;;;1.70;1.60;;;12.60;99.90;;;;;;937710;150;27356;-75
2023/04/02 02:33:02;;;;;;;1.80;1.70;;;12.60;99.90;;;;;;937927;150;27357;-75
2023/04/02 02:35:28;;;;;;;2.10;1.50;;;12.50;99.90;;;;;;938725;150;27365;-76
2023/04/02 02:37:55;;;;;;;1.77;1.60;;;12.50;99.90;;;;;;941211;148;27341;-75
2023/04/02 02:40:21;;;;;;;2.13;1.60;;;12.50;99.90;;;;;;914497;150;27430;-75
2023/04/02 02:42:48;;;;;;;1.90;1.80;;;12.50;99.90;;;;;;941224;149;27404;-75
2023/04/02 02:45:15;;;;;;;1.67;1.57;;;12.50;99.90;;;;;;945363;148;27433;-75
2023/04/02 02:47:41;;;;;;;2.43;1.90;;;12.50;99.90;;;;;;944063;148;27364;-75
2023/04/02 02:50:09;;;;;;;2.80;1.63;;;12.50;99.90;;;;;;958899;146;27431;-75
2023/04/02 02:52:34;;;;;;;1.77;1.67;;;12.40;99.90;;;;;;955442;146;27403;-75
2023/04/02 02:55:07;;;;;;;1.67;1.57;;;12.40;99.90;;;;;;948291;147;27341;-75
2023/04/02 02:57:33;;;;;;;2.00;1.70;;;12.40;99.90;;;;;;927448;150;27339;-75
2023/04/02 03:00:00;;;;;;;2.00;1.80;;;12.40;99.90;;;;;;922710;151;27315;-75
2023/04/02 03:02:26;;;;;;;1.60;1.60;;;12.30;99.90;;;;;;944336;148;27325;-75
2023/04/02 03:04:53;;;;;;;2.87;2.10;;;12.30;99.90;;;;;;944360;148;27333;-75
2023/04/02 03:07:24;;;;;;;1.93;1.83;;;12.30;99.90;;;;;;948491;147;27359;-75
2023/04/02 03:10:13;;;;;;;1.67;1.57;;;12.20;99.90;;;;;;947016;147;27324;-75
2023/04/02 03:12:52;;;;;;;2.10;2.00;;;12.30;99.90;;;;;;943820;148;27337;-75
2023/04/02 03:15:42;;;;;;;2.13;2.03;;;12.30;99.90;;;;;;936879;150;27334;-75
2023/04/02 03:18:18;;;;;;;2.00;1.80;;;12.20;99.90;;;;;;937120;150;27366;-75
2023/04/02 03:20:45;;;;;;;2.60;2.10;;;12.20;99.90;;;;;;935561;150;27354;-76
2023/04/02 03:23:26;;;;;;;2.80;1.90;;;12.20;99.90;;;;;;936175;150;27393;-75
2023/04/02 03:26:08;;;;;;;1.87;1.70;;;12.20;99.90;;;;;;935487;150;27378;-75
2023/04/02 03:28:34;;;;;;;2.40;2.10;;;12.20;99.90;;;;;;937650;150;27918;-75
2023/04/02 03:31:01;;;;;;;2.07;1.97;;;12.10;99.90;;;;;;935889;149;27386;-75
2023/04/02 03:33:27;;;;;;;2.37;2.17;;;12.10;99.90;;;;;;936532;150;27322;-75
2023/04/02 03:36:03;;;;;;;2.27;2.07;;;12.10;99.90;;;;;;934119;150;27319;-75
2023/04/02 03:38:35;;;;;;;2.50;2.10;;;12.10;99.90;;;;;;911294;151;27347;-75
2023/04/02 03:41:10;;;;;;;2.10;2.00;;;12.10;99.90;;;;;;940931;149;27458;-75
2023/04/02 03:43:40;;;;;;;3.03;2.00;;;12.20;99.90;;;;;;943679;148;27333;-76
2023/04/02 03:46:07;;;;;;;2.20;2.10;;;12.20;99.90;;;;;;942799;148;27310;-75
2023/04/02 03:48:33;;;;;;;2.07;1.93;;;12.20;99.90;;;;;;943803;148;27353;-75
2023/04/02 03:51:00;;;;;;;2.27;2.03;;;12.20;99.90;;;;;;943249;148;27360;-75
2023/04/02 03:53:26;;;;;;;2.37;2.17;;;12.20;99.90;;;;;;943633;148;27414;-75
2023/04/02 03:55:53;;;;;;;2.83;2.40;;;12.20;99.90;;;;;;947422;147;27405;-75
2023/04/02 03:58:37;;;;;;;2.50;2.30;;;12.20;99.90;;;;;;946768;147;27300;-75
2023/04/02 04:01:19;;;;;;;2.50;2.30;;;12.20;99.90;;;;;;947552;148;27481;-75
2023/04/02 04:03:48;;;;;;;3.17;2.50;;;12.30;99.90;;;;;;939085;150;27364;-75
2023/04/02 04:06:23;;;;;;;3.00;2.70;;;12.30;99.90;;;;;;943462;148;27418;-75
2023/04/02 04:08:53;;;;;;;2.90;2.70;;;12.30;99.90;;;;;;943368;148;27404;-75
2023/04/02 04:11:20;;;;;;;3.23;2.40;;;12.30;99.90;;;;;;943716;148;27353;-75
2023/04/02 04:13:57;;;;;;;2.77;2.57;;;12.30;99.90;;;;;;942351;148;27341;-75
2023/04/02 04:16:25;;;;;;;2.90;2.70;;;12.30;99.90;;;;;;936760;148;27367;-76
2023/04/02 04:18:51;;;;;;;2.90;2.70;;;12.30;99.90;;;;;;924089;151;27362;-75
2023/04/02 04:21:28;;;;;;;3.03;2.80;;;12.30;99.90;;;;;;942754;148;27357;-75
2023/04/02 04:23:49;;;;;;;2.60;2.30;;;12.20;99.90;;;;;;923424;151;27365;-76
2023/04/02 04:26:40;;;;;;;2.90;2.60;;;12.30;99.90;;;;;;924734;150;27486;-76
2023/04/02 04:29:08;;;;;;;3.10;2.80;;;12.30;99.90;;;;;;938948;150;27475;-75
2023/04/02 04:31:38;;;;;;;2.60;2.40;;;12.30;99.90;;;;;;936115;149;27330;-75
2023/04/02 04:34:02;;;;;;;2.43;2.33;;;12.30;99.90;;;;;;935625;148;27396;-75
2023/04/02 04:36:29;;;;;;;2.60;2.40;;;12.30;99.90;;;;;;937099;150;27801;-75
2023/04/02 04:38:58;;;;;;;2.80;2.60;;;12.20;99.90;;;;;;937656;150;27372;-75
2023/04/02 04:41:33;;;;;;;3.67;2.40;;;12.20;99.90;;;;;;937578;150;27283;-75
2023/04/02 04:44:06;;;;;;;2.60;2.40;;;12.20;99.90;;;;;;934163;150;27385;-75
2023/04/02 04:46:44;;;;;;;3.03;2.70;;;12.20;99.90;;;;;;925669;150;27382;-75
2023/04/02 04:49:11;;;;;;;2.33;2.23;;;12.20;99.90;;;;;;947614;147;27338;-75
2023/04/02 04:52:15;;;;;;;2.60;2.43;;;12.20;99.90;;;;;;926592;150;27424;-75
2023/04/02 04:54:42;;;;;;;2.47;2.37;;;12.30;99.90;;;;;;930909;149;28044;-75
2023/04/02 04:57:08;;;;;;;2.40;2.20;;;12.20;99.90;;;;;;945184;147;27299;-75
2023/04/02 04:59:35;;;;;;;2.80;2.60;;;12.20;99.90;;;;;;936640;148;27663;-75
2023/04/02 05:02:01;;;;;;;2.80;2.60;;;12.20;99.90;;;;;;936585;148;27317;-75
2023/04/02 05:04:28;;;;;;;3.10;2.60;;;12.30;99.90;;;;;;933016;149;27358;-75
2023/04/02 05:06:54;;;;;;;3.07;2.70;;;12.30;99.90;;;;;;932541;149;27435;-75
2023/04/02 05:09:24;;;;;;;3.20;2.90;;;12.30;99.90;;;;;;938637;150;27350;-75
2023/04/02 05:12:00;;;;;;;2.83;2.63;;;12.30;99.90;;;;;;938054;150;27353;-75
2023/04/02 05:14:26;;;;;;;4.03;2.50;;;12.30;99.90;;;;;;937672;150;27484;-75
2023/04/02 05:16:56;;;;;;;2.80;2.60;;;12.30;99.90;;;;;;925702;150;27464;-75
2023/04/02 05:19:28;;;;;;;2.60;2.40;;;12.30;99.90;;;;;;942919;148;27342;-76
2023/04/02 05:22:13;;;;;;;3.00;2.80;;;12.30;99.90;;;;;;943108;148;27465;-76
2023/04/02 05:24:46;;;;;;;2.60;2.40;;;12.30;99.90;;;;;;940080;149;27375;-76
2023/04/02 05:27:24;;;;;;;3.00;2.70;;;12.30;99.90;;;;;;935856;150;27410;-76
2023/04/02 05:29:51;;;;;;;2.77;2.57;;;12.30;99.90;;;;;;941834;148;27328;-75
2023/04/02 05:32:20;;;;;;;2.77;2.57;;;12.30;99.90;;;;;;936412;148;27409;-75
2023/04/02 05:34:46;;;;;;;3.47;2.83;;;12.40;99.90;;;;;;937502;148;27333;-75
2023/04/02 05:37:13;;;;;;;2.80;2.60;;;12.40;99.90;;;;;;937013;148;27461;-75
2023/04/02 05:39:39;;;;;;;3.30;2.90;;;12.40;99.90;;;;;;920935;150;27321;-75
2023/04/02 05:42:07;;;;;;;3.53;3.23;;;12.50;99.90;;;;;;937061;148;27263;-75
2023/04/02 05:44:35;;;;;;;3.17;2.97;;;12.50;99.90;;;;;;936681;150;27350;-75
2023/04/02 05:47:05;;;;;;;3.65;3.40;;;12.50;99.90;;;;;;946947;147;27448;-75
2023/04/02 05:49:40;;;;;;;2.77;2.57;;;12.60;99.90;;;;;;939073;147;27602;-75
2023/04/02 05:52:06;;;;;;;3.10;2.80;;;12.60;99.90;;;;;;942778;149;27325;-75
2023/04/02 05:54:39;;;;;;;2.87;2.67;;;12.70;99.90;;;;;;942269;149;27345;-75
2023/04/02 05:57:12;;;;;;;2.67;2.47;;;12.70;99.90;;;;;;928912;149;27357;-75
2023/04/02 05:59:38;;;;;;;3.53;2.93;;;12.80;99.90;;;;;;931538;149;27413;-75
2023/04/02 06:02:11;;;;;;;3.20;2.90;;;12.80;99.90;;;;;;918213;151;27328;-75
2023/04/02 06:04:43;;;;;;;2.90;2.70;;;12.90;99.90;;;;;;937022;148;27310;-74
2023/04/02 06:07:28;;;;;;;2.80;2.60;;;12.90;99.90;;;;;;934122;149;27790;-74
2023/04/02 06:10:03;;;;;;;2.58;2.47;;;13.00;99.90;;;;;;938153;150;27427;-75
2023/04/02 06:12:27;;;;;;;2.70;2.50;;;13.00;99.90;;;;;;935060;149;27425;-74
2023/04/02 06:14:53;;;;;;;3.30;3.07;;;13.10;99.90;;;;;;931889;149;27424;-75
2023/04/02 06:17:20;;;;;;;3.40;3.10;;;13.10;99.90;;;;;;933086;149;27369;-74
2023/04/02 06:19:47;;;;;;;3.37;3.00;;;13.10;99.90;;;;;;928714;149;27412;-74
2023/04/02 06:22:35;;;;;;;3.20;3.00;;;13.20;99.90;;;;;;937835;149;27279;-74
2023/04/02 06:25:01;;;;;;;3.40;3.10;;;13.20;99.90;;;;;;938700;150;27349;-75
2023/04/02 06:27:28;;;;;;;2.87;2.67;;;13.30;99.90;;;;;;947375;147;27380;-75
2023/04/02 06:29:54;;;;;;;2.85;2.65;;;13.40;99.90;;;;;;943935;149;27445;-74
2023/04/02 06:32:21;;;;;;;3.12;2.85;;;13.40;99.90;;;;;;940386;149;27387;-74
2023/04/02 06:34:48;;;;;;;2.37;2.22;;;13.50;99.90;;;;;;916277;152;27362;-74
2023/04/02 06:37:14;;;;;;;3.00;2.80;;;13.50;99.90;;;;;;935812;150;27364;-74
2023/04/02 06:39:41;;;;;;;2.60;2.45;;;13.60;99.90;;;;;;937222;150;27443;-74
2023/04/02 06:42:10;;;;;;;3.50;3.10;;;13.70;99.90;;;;;;937289;147;27348;-74
2023/04/02 06:44:37;;;;;;;3.15;2.90;;;13.80;99.90;;;;;;947638;148;27351;-75
2023/04/02 06:47:06;;;;;;;3.25;3.05;;;13.80;99.90;;;;;;940971;150;27426;-82
2023/04/02 06:49:42;;;;;;;3.22;2.92;;;13.90;99.90;;;;;;941113;151;27806;-82
2023/04/02 06:52:23;;;;;;;2.85;2.65;;;13.90;99.90;;;;;;927113;152;27478;-82
2023/04/02 06:54:50;;;;;;;3.05;2.85;;;14.00;99.90;;;;;;926564;153;27267;-82
2023/04/02 06:57:16;;;;;;;2.50;2.30;;;14.00;99.90;;;;;;940025;151;27370;-81
2023/04/02 06:59:43;;;;;;;1.50;1.43;;;14.00;99.90;;;;;;929926;151;27346;-83
2023/04/02 07:02:24;;;;;;;0.90;0.90;;;13.90;99.90;;;;;;927623;152;27466;-83
2023/04/02 07:04:51;;;;;;;0.50;0.50;;;13.90;99.90;;;;;;924002;153;27435;-85
2023/04/02 07:07:18;;;;;;;0.50;0.50;;;13.70;99.80;;;;;;924963;154;27321;-84
2023/04/02 07:09:44;;;;;;;0.40;0.40;;;13.60;99.10;;;;;;943722;149;27306;-84
2023/04/02 07:12:11;;;;;;;1.13;0.90;;;13.40;98.70;;;;;;943477;149;27344;-84
2023/04/02 07:14:37;;;;;;;0.97;0.80;;;13.20;98.80;;;;;;943262;149;27460;-84
2023/04/02 07:17:04;;;;;;;2.20;0.60;;;13.00;99.30;;;;;;940534;149;27254;-84
2023/04/02 07:19:30;;;;;;;1.27;0.50;;;12.80;99.50;;;;;;941304;149;27831;-84
2023/04/02 07:21:57;;;;;;;0.43;0.43;;;12.60;99.80;;;;;;941589;151;27660;-82
2023/04/02 07:24:24;;;;;;;0.60;0.50;;;12.40;99.90;;;;;;925201;154;27466;-83
2023/04/02 07:26:50;;;;;;;0.50;0.50;;;12.30;99.90;;;;;;925453;154;27263;-83
2023/04/02 07:29:18;;;;;;;0.43;0.43;;;12.20;99.90;;;;;;939756;152;27281;-83
2023/04/02 07:31:43;;;;;;;0.40;0.40;;;12.10;99.90;;;;;;918941;152;27510;-83
2023/04/02 07:34:10;;;;;;;0.40;0.40;;;12.00;99.90;;;;;;921759;154;27447;-84
2023/04/02 07:36:37;;;;;;;0.60;0.60;;;11.90;99.90;;;;;;921039;154;27355;-84
2023/04/02 07:39:03;;;;;;;0.70;0.70;;;11.80;99.90;;;;;;927771;153;27390;-82
2023/04/02 07:41:30;;;;;;;0.87;0.87;;;11.70;99.90;;;;;;927213;153;27403;-84
2023/04/02 07:43:56;;;;;;;0.73;0.73;;;11.60;99.90;;;;;;946728;151;27755;-83
2023/04/02 07:46:24;;;;;;;0.60;0.60;;;11.60;99.90;;;;;;935814;149;27423;-83
2023/04/02 07:48:50;;;;;;;0.50;0.50;;;11.60;99.90;;;;;;943750;149;27261;-83
2023/04/02 07:51:16;;;;;;;1.53;1.00;;;11.50;99.90;;;;;;943002;149;27423;-82
2023/04/02 07:53:43;;;;;;;0.80;0.80;;;11.50;99.90;;;;;;946166;149;27321;-83
2023/04/02 07:56:11;;;;;;;0.80;0.80;;;11.50;99.90;;;;;;963117;146;27334;-83
2023/04/02 07:58:36;;;;;;;0.70;0.70;;;11.50;99.90;;;;;;959748;146;27425;-83
2023/04/02 08:01:03;;;;;;;2.53;1.57;;;11.40;99.90;;;;;;947067;148;27352;-84
2023/04/02 08:03:30;;;;;;;0.97;0.97;;;11.40;99.90;;;;;;936046;150;27426;-83
2023/04/02 08:05:56;;;;;;;1.30;1.20;;;11.40;99.90;;;;;;938293;149;27304;-84
2023/04/02 08:08:23;;;;;;;0.70;0.50;;;11.40;99.90;;;;;;937824;149;27401;-83
2023/04/02 08:10:49;;;;;;;0.60;0.60;;;11.40;99.90;;;;;;951684;148;27445;-84
2023/04/02 08:13:16;;;;;;;0.97;0.97;;;11.40;99.90;;;;;;949984;148;27320;-83
2023/04/02 08:15:42;;;;;;;0.70;0.57;;;11.40;99.90;;;;;;950719;148;27304;-83
2023/04/02 08:18:09;;;;;;;0.60;0.60;;;11.40;99.90;;;;;;951513;148;27355;-83
2023/04/02 08:20:35;;;;;;;0.33;0.33;;;11.40;99.90;;;;;;950774;148;27356;-83
2023/04/02 08:23:02;;;;;;;0.50;0.50;;;11.30;99.90;;;;;;950583;148;27463;-83
2023/04/02 08:25:29;;;;;;;0.53;0.53;;;11.30;99.90;;;;;;950731;148;27348;-84
2023/04/02 08:27:55;;;;;;;0.97;0.90;;;11.20;99.90;;;;;;951549;148;27349;-84
2023/04/02 08:30:22;;;;;;;0.87;0.80;;;11.20;99.90;;;;;;951706;148;27309;-83
2023/04/02 08:32:48;;;;;;;0.63;0.63;;;11.10;99.90;;;;;;950151;148;27374;-83
2023/04/02 08:35:15;;;;;;;0.40;0.40;;;11.10;99.90;;;;;;951249;148;27429;-84
2023/04/02 08:37:42;;;;;;;0.50;0.50;;;11.00;99.90;;;;;;951988;148;27316;-83
2023/04/02 08:40:08;;;;;;;0.60;0.60;;;11.00;99.90;;;;;;951979;148;27253;-83
2023/04/02 08:42:40;;;;;;;0.70;0.70;;;10.90;99.90;;;;;;948407;148;27320;-83
2023/04/02 08:45:20;;;;;;;2.23;1.00;;;10.90;99.90;;;;;;950360;148;27441;-84
2023/04/02 08:47:46;;;;;;;0.77;0.77;;;10.80;99.90;;;;;;929900;150;27459;-84
2023/04/02 08:50:12;;;;;;;0.80;0.80;;;10.80;99.90;;;;;;929247;152;27414;-84
2023/04/02 08:52:38;;;;;;;0.90;0.90;;;10.80;99.90;;;;;;928591;152;27935;-84
2023/04/02 08:55:05;;;;;;;1.00;1.00;;;10.80;99.90;;;;;;931279;151;27792;-83
2023/04/02 08:57:47;;;;;;;1.30;1.20;;;10.80;99.90;;;;;;941917;151;27410;-84
2023/04/02 09:00:25;;;;;;;3.03;2.20;;;10.80;99.90;;;;;;934596;151;27440;-83
2023/04/02 09:02:52;;;;;;;1.80;1.70;;;10.80;99.90;;;;;;934446;151;27898;-83
2023/04/02 09:05:21;;;;;;;0.90;0.90;;;10.80;99.90;;;;;;933776;151;27365;-83
2023/04/02 09:07:48;;;;;;;1.93;1.77;;;10.80;99.90;;;;;;924066;152;27946;-84
2023/04/02 09:10:15;;;;;;;2.97;1.80;;;10.80;99.90;;;;;;929126;151;27449;-82
2023/04/02 09:12:41;;;;;;;2.10;1.80;;;10.80;99.90;;;;;;933390;151;27337;-83
2023/04/02 09:15:15;;;;;;;1.77;1.10;;;10.90;99.90;;;;;;928240;150;27498;-83
2023/04/02 09:17:40;;;;;;;1.40;1.30;;;11.00;99.90;;;;;;928774;153;27491;-84
2023/04/02 09:20:20;;;;;;;1.13;1.10;;;11.00;99.90;;;;;;940268;149;27790;-83
2023/04/02 09:22:45;;;;;;;1.10;1.10;;;11.10;99.90;;;;;;940756;149;27470;-83
2023/04/02 09:25:14;;;;;;;0.70;0.70;;;11.20;99.90;;;;;;941264;151;27434;-83
2023/04/02 09:27:41;;;;;;;0.77;0.77;;;11.20;99.90;;;;;;921601;153;27838;-83
2023/04/02 09:30:29;;;;;;;0.67;0.67;;;11.30;99.90;;;;;;915905;152;27264;-82
2023/04/02 09:32:55;;;;;;;0.70;0.70;;;11.40;99.90;;;;;;905018;153;27398;-82
2023/04/02 09:35:22;;;;;;;0.63;0.63;;;11.40;99.90;;;;;;924221;154;27463;-82
2023/04/02 09:37:48;;;;;;;0.67;0.67;;;11.40;99.90;;;;;;925503;153;27349;-82
2023/04/02 09:40:18;;;;;;;0.70;0.70;;;11.40;99.90;;;;;;921886;152;27335;-82
2023/04/02 09:42:45;;;;;;;1.00;1.00;;;11.40;99.90;;;;;;938470;150;27489;-83
2023/04/02 09:45:20;;;;;;;0.70;0.70;;;11.40;99.90;;;;;;929222;151;27418;-83
2023/04/02 09:47:47;;;;;;;1.10;1.00;;;11.30;99.90;;;;;;934275;149;27384;-82
2023/04/02 09:50:25;;;;;;;0.87;0.87;;;11.30;99.90;;;;;;942603;148;27400;-82
2023/04/02 09:52:52;;;;;;;0.93;0.93;;;11.30;99.90;;;;;;929446;149;27423;-83
2023/04/02 09:55:18;;;;;;;0.80;0.80;;;11.40;99.90;;;;;;932001;149;27496;-82
2023/04/02 09:57:45;;;;;;;0.80;0.80;;;11.40;99.90;;;;;;930656;149;27399;-82
2023/04/02 10:00:25;;;;;;;0.83;0.83;;;11.40;99.90;;;;;;932856;149;27511;-82
2023/04/02 10:02:47;;;;;;;0.73;0.73;;;11.40;99.90;;;;;;932070;149;27314;-83
2023/04/02 10:05:19;;;;;;;1.30;1.20;;;11.40;99.90;;;;;;930460;149;27418;-83
2023/04/02 10:07:47;;;;;;;1.53;1.07;;;11.40;99.90;;;;;;931132;149;27449;-83
2023/04/02 10:10:24;;;;;;;0.80;0.80;;;11.40;99.90;;;;;;932038;149;27416;-82
2023/04/02 10:12:58;;;;;;;1.00;1.00;;;11.40;99.90;;;;;;930364;149;27362;-82
2023/04/02 10:15:26;;;;;;;1.40;0.90;;;11.40;99.90;;;;;;929144;149;27439;-83
2023/04/02 10:18:04;;;;;;;0.90;0.90;;;11.40;99.90;;;;;;930391;149;27396;-82
2023/04/02 10:20:31;;;;;;;0.70;0.70;;;11.40;99.90;;;;;;930878;149;27356;-83
2023/04/02 10:22:57;;;;;;;0.70;0.70;;;11.40;99.90;;;;;;930198;149;27345;-82
2023/04/02 10:25:24;;;;;;;0.87;0.87;;;11.40;99.90;;;;;;931210;149;27333;-82
2023/04/02 10:28:08;;;;;;;0.70;0.70;;;11.40;99.90;;;;;;930429;149;27369;-83
2023/04/02 10:30:54;;;;;;;0.70;0.70;;;11.40;99.90;;;;;;930826;149;27314;-83
2023/04/02 10:33:31;;;;;;;0.70;0.70;;;11.40;99.90;;;;;;930280;149;27450;-83
2023/04/02 10:36:08;;;;;;;0.60;0.60;;;11.50;99.90;;;;;;927024;149;27364;-82
2023/04/02 10:38:52;;;;;;;0.60;0.60;;;11.50;99.90;;;;;;931878;149;27352;-82
2023/04/02 10:41:22;;;;;;;0.70;0.70;;;11.60;99.90;;;;;;928521;149;27352;-82
2023/04/02 10:44:06;;;;;;;1.00;1.00;;;11.50;99.90;;;;;;929524;149;27336;-83
2023/04/02 10:46:36;;;;;;;0.90;0.90;;;11.50;99.90;;;;;;928226;149;27414;-82
2023/04/02 10:49:20;;;;;;;0.97;0.97;;;11.50;99.90;;;;;;942238;148;27999;-82
2023/04/02 10:51:59;;;;;;;0.73;0.73;;;11.50;99.90;;;;;;949007;148;27356;-82
2023/04/02 10:54:41;;;;;;;0.83;0.83;;;11.50;99.90;;;;;;943711;149;27376;-82
2023/04/02 10:57:26;;;;;;;1.00;0.80;;;11.50;99.90;;;;;;941716;149;27326;-82
2023/04/02 10:59:56;;;;;;;0.93;0.80;;;11.40;99.90;;;;;;942863;149;27307;-82
2023/04/02 11:02:34;;;;;;;1.00;0.83;;;11.40;99.90;;;;;;941573;149;27325;-82
2023/04/02 11:05:01;;;;;;;0.90;0.90;;;11.30;99.90;;;;;;942542;149;27391;-83
2023/04/02 11:07:27;;;;;;;1.10;1.10;;;11.30;99.90;;;;;;943065;149;27469;-82
2023/04/02 11:09:53;;;;;;;1.27;1.10;;;11.20;99.90;;;;;;943065;149;27361;-82
2023/04/02 11:12:23;;;;;;;1.00;1.00;;;11.20;99.90;;;;;;943418;149;27278;-82
2023/04/02 11:14:50;;;;;;;1.20;1.10;;;11.20;99.90;;;;;;925491;149;27346;-81
2023/04/02 11:17:16;;;;;;;1.23;1.13;;;11.10;99.90;;;;;;944001;149;27348;-81
2023/04/02 11:19:43;;;;;;;1.00;1.00;;;11.10;99.90;;;;;;943557;149;27648;-80
2023/04/02 11:22:21;;;;;;;1.03;1.00;;;11.00;99.90;;;;;;943195;149;27362;-80
2023/04/02 11:24:53;;;;;;;0.93;0.93;;;11.00;99.90;;;;;;942737;149;27718;-80
2023/04/02 11:27:29;;;;;;;0.93;0.90;;;11.00;99.90;;;;;;942820;149;27380;-80
2023/04/02 11:30:04;;;;;;;2.40;1.60;;;11.00;99.90;;;;;;944503;149;27329;-80
2023/04/02 11:32:31;;;;;;;1.30;1.20;;;10.90;99.90;;;;;;943402;148;27390;-81
2023/04/02 11:34:57;;;;;;;1.10;1.00;;;10.90;99.90;;;;;;930276;150;27471;-80
2023/04/02 11:37:39;;;;;;;0.90;0.90;;;10.90;99.90;;;;;;940498;149;27358;-80
2023/04/02 11:40:12;;;;;;;1.03;1.03;;;10.80;99.70;;;;;;926985;150;27433;-81
2023/04/02 11:42:44;;;;;;;1.00;1.00;;;10.70;99.60;;;;;;927272;150;27339;-81
2023/04/02 11:45:22;;;;;;;1.87;1.00;;;10.70;99.60;;;;;;936568;150;27463;-83
2023/04/02 11:48:02;;;;;;;1.20;1.10;;;10.60;99.80;;;;;;937414;150;27303;-81
2023/04/02 11:50:33;;;;;;;1.30;1.20;;;10.50;99.90;;;;;;937055;150;27423;-81
2023/04/02 11:53:00;;;;;;;1.70;1.60;;;10.50;99.90;;;;;;936423;150;27346;-81
2023/04/02 11:55:29;;;;;;;2.63;1.33;;;10.40;99.90;;;;;;937647;150;27468;-81
2023/04/02 11:58:21;;;;;;;1.57;1.47;;;10.40;99.90;;;;;;936506;150;27342;-81
2023/04/02 12:01:10;;;;;;;1.30;1.20;;;10.40;99.90;;;;;;936896;150;27384;-81
2023/04/02 12:03:50;;;;;;;1.17;1.17;;;10.50;99.90;;;;;;933948;150;27338;-81
2023/04/02 12:06:25;;;;;;;1.30;1.20;;;10.50;99.90;;;;;;936080;150;27338;-81
2023/04/02 12:08:57;;;;;;;1.13;1.13;;;10.50;99.90;;;;;;922808;150;27478;-81
2023/04/02 12:11:36;;;;;;;1.50;1.40;;;10.60;99.90;;;;;;935535;149;27445;-81
2023/04/02 12:14:02;;;;;;;1.50;1.20;;;10.60;99.90;;;;;;934603;150;28110;-80
2023/04/02 12:16:31;;;;;;;1.50;1.40;;;10.60;99.90;;;;;;936453;149;27336;-81
2023/04/02 12:18:55;;;;;;;4.03;3.23;;;10.60;99.90;;;;;;938455;149;27331;-80
2023/04/02 12:21:25;;;;;;;2.87;2.07;;;10.70;99.90;;;;;;939283;149;27436;-80
2023/04/02 12:23:51;;;;;;;1.40;1.30;;;10.70;99.90;;;;;;940145;151;27279;-80
2023/04/02 12:26:28;;;;;;;1.00;1.00;;;10.70;99.90;;;;;;938837;149;27348;-80
2023/04/02 12:28:55;;;;;;;1.50;1.40;;;10.70;99.90;;;;;;938739;151;27360;-81
2023/04/02 12:31:20;;;;;;;1.57;1.47;;;10.80;99.90;;;;;;936827;150;27307;-81
2023/04/02 12:33:47;;;;;;;2.03;1.47;;;10.80;99.90;;;;;;937819;150;27301;-80
2023/04/02 12:36:13;;;;;;;1.30;1.30;;;10.90;99.90;;;;;;938646;151;27320;-80
2023/04/02 12:38:46;;;;;;;1.50;1.40;;;10.90;99.90;;;;;;938672;151;27340;-80
2023/04/02 12:41:16;;;;;;;1.60;1.50;;;11.00;99.90;;;;;;937275;151;27481;-81
2023/04/02 12:43:42;;;;;;;1.70;1.60;;;11.00;99.90;;;;;;937209;149;27444;-80
2023/04/02 12:46:09;;;;;;;3.23;1.47;;;11.10;99.90;;;;;;937704;149;27242;-80
2023/04/02 12:48:35;;;;;;;1.60;1.50;;;11.10;99.90;;;;;;944023;148;27444;-79
2023/04/02 12:51:02;;;;;;;1.70;1.60;;;11.10;99.20;;;;;;939798;149;27377;-80
2023/04/02 12:53:37;;;;;;;2.07;1.90;;;11.10;98.70;;;;;;939703;149;27397;-80
2023/04/02 12:56:04;;;;;;;2.43;2.23;;;11.10;98.40;;;;;;940143;149;27345;-80
2023/04/02 12:58:37;;;;;;;1.60;1.50;;;11.10;98.30;;;;;;939887;149;27442;-80
2023/04/02 13:01:17;;;;;;;1.77;1.60;;;11.10;98.30;;;;;;940837;149;27366;-81
2023/04/02 13:03:42;;;;;;;1.63;1.53;;;11.10;98.10;;;;;;939997;149;27901;-81
2023/04/02 13:06:22;;;;;;;1.40;1.40;;;11.10;97.80;;;;;;940332;149;27314;-80